createdAt,value
2022-07-25T00:00:39.663Z,13.27
2022-07-25T00:03:10.915Z,13.07
2022-07-25T00:05:40.313Z,13.50
2022-07-25T00:08:09.363Z,13.20
2022-07-25T00:10:38.628Z,12.67
2022-07-25T00:13:07.918Z,13.00
2022-07-25T00:15:37.033Z,13.17
2022-07-25T00:18:07.688Z,13.20
2022-07-25T00:20:37.978Z,13.10
2022-07-25T00:23:07.181Z,12.70
2022-07-25T00:25:36.422Z,13.03
2022-07-25T00:28:06.112Z,13.33
2022-07-25T00:30:35.146Z,12.83
2022-07-25T00:33:04.683Z,13.80
2022-07-25T00:35:35.107Z,13.23
2022-07-25T00:38:04.194Z,13.20
2022-07-25T00:40:33.491Z,14.40
2022-07-25T00:43:02.765Z,13.67
2022-07-25T00:45:32.258Z,14.52
2022-07-25T00:48:01.367Z,14.63
2022-07-25T00:50:30.785Z,14.05
2022-07-25T00:53:01.240Z,13.33
2022-07-25T00:55:31.542Z,13.33
2022-07-25T00:58:00.689Z,13.90
2022-07-25T01:00:30.182Z,14.87
2022-07-25T01:02:59.922Z,14.60
2022-07-25T01:05:29.509Z,14.33
2022-07-25T01:08:00.236Z,14.77
2022-07-25T01:10:31.216Z,14.80
2022-07-25T01:17:32.310Z,14.13
2022-07-25T01:20:01.354Z,14.80
2022-07-25T01:22:31.799Z,13.30
2022-07-25T01:25:01.283Z,13.80
2022-07-25T01:27:30.371Z,14.63
2022-07-25T01:29:59.509Z,14.20
2022-07-25T01:32:28.814Z,14.33
2022-07-25T01:34:57.912Z,13.60
2022-07-25T01:37:26.943Z,14.70
2022-07-25T01:39:57.391Z,14.67
2022-07-25T01:42:26.516Z,15.40
2022-07-25T01:44:55.853Z,14.60
2022-07-25T01:47:24.972Z,12.77
2022-07-25T01:49:54.291Z,14.33
2022-07-25T01:52:23.529Z,14.23
2022-07-25T01:54:52.662Z,14.77
2022-07-25T01:57:23.341Z,13.02
2022-07-25T02:00:00.545Z,13.70
2022-07-25T02:02:29.595Z,13.33
2022-07-25T02:04:58.676Z,13.30
2022-07-25T02:07:27.911Z,14.93
2022-07-25T02:09:57.149Z,13.00
2022-07-25T02:12:28.012Z,13.40
2022-07-25T02:14:57.155Z,12.90
2022-07-25T02:17:26.477Z,12.83
2022-07-25T02:19:55.552Z,13.27
2022-07-25T02:22:24.848Z,13.67
2022-07-25T02:24:53.906Z,14.70
2022-07-25T02:27:23.013Z,14.30
2022-07-25T02:29:53.437Z,15.00
2022-07-25T02:32:22.494Z,14.43
2022-07-25T02:34:51.872Z,14.13
2022-07-25T02:37:20.873Z,13.13
2022-07-25T02:39:49.955Z,14.90
2022-07-25T02:42:19.199Z,13.97
2022-07-25T02:44:48.395Z,14.73
2022-07-25T02:47:18.953Z,13.83
2022-07-25T02:49:48.015Z,13.77
2022-07-25T02:52:17.044Z,13.20
2022-07-25T02:54:46.100Z,13.70
2022-07-25T02:57:15.191Z,15.10
2022-07-25T02:59:44.219Z,13.63
2022-07-25T03:02:13.491Z,13.57
2022-07-25T03:04:43.906Z,14.00
2022-07-25T03:07:13.102Z,13.43
2022-07-25T03:09:42.234Z,14.50
2022-07-25T03:12:11.609Z,13.83
2022-07-25T03:14:40.836Z,14.40
2022-07-25T03:17:09.867Z,14.03
2022-07-25T03:19:39.008Z,12.53
2022-07-25T03:22:09.470Z,14.03
2022-07-25T03:24:38.839Z,14.40
2022-07-25T03:27:07.906Z,13.40
2022-07-25T03:29:37.066Z,13.83
2022-07-25T03:32:07.518Z,14.40
2022-07-25T03:34:36.910Z,13.87
2022-07-25T03:37:06.550Z,13.30
2022-07-25T03:39:37.047Z,14.20
2022-07-25T03:42:06.183Z,16.03
2022-07-25T03:44:35.715Z,13.73
2022-07-25T03:47:05.042Z,12.57
2022-07-25T03:49:34.277Z,14.70
2022-07-25T03:52:03.338Z,13.40
2022-07-25T03:54:32.444Z,13.73
2022-07-25T03:57:02.870Z,15.90
2022-07-25T03:59:31.924Z,14.80
2022-07-25T04:02:01.008Z,15.70
2022-07-25T04:04:30.157Z,15.00
2022-07-25T04:06:59.256Z,14.10
2022-07-25T04:09:31.006Z,13.85
2022-07-25T04:12:04.808Z,14.30
2022-07-25T04:14:34.086Z,14.10
2022-07-25T04:17:03.401Z,13.43
2022-07-25T04:19:32.843Z,14.17
2022-07-25T04:22:02.010Z,14.50
2022-07-25T04:24:31.391Z,14.13
2022-07-25T04:27:00.550Z,13.90
2022-07-25T04:29:31.161Z,15.63
2022-07-25T04:32:00.287Z,14.88
2022-07-25T04:34:29.380Z,13.90
2022-07-25T04:36:58.552Z,15.63
2022-07-25T04:39:27.682Z,14.13
2022-07-25T04:41:56.830Z,16.07
2022-07-25T04:44:25.929Z,15.00
2022-07-25T04:46:56.562Z,15.33
2022-07-25T04:49:28.715Z,15.00
2022-07-25T04:51:57.881Z,15.90
2022-07-25T04:54:26.950Z,14.50
2022-07-25T04:56:56.035Z,14.60
2022-07-25T04:59:25.177Z,14.50
2022-07-25T05:01:56.234Z,12.83
2022-07-25T05:04:25.333Z,13.20
2022-07-25T05:06:54.410Z,12.80
2022-07-25T05:09:23.782Z,12.97
2022-07-25T05:11:56.423Z,12.60
2022-07-25T05:14:26.229Z,13.10
2022-07-25T05:16:56.903Z,12.47
2022-07-25T05:19:26.360Z,12.77
2022-07-25T05:24:45.254Z,12.10
2022-07-25T05:27:14.397Z,12.13
2022-07-25T05:29:43.552Z,11.20
2022-07-25T05:32:14.091Z,12.27
2022-07-25T05:34:43.225Z,11.63
2022-07-25T05:37:12.425Z,10.67
2022-07-25T05:39:41.508Z,11.23
2022-07-25T05:42:10.751Z,11.20
2022-07-25T05:44:40.190Z,11.60
2022-07-25T05:47:11.821Z,11.53
2022-07-25T05:49:42.581Z,11.20
2022-07-25T05:52:13.313Z,11.50
2022-07-25T05:54:42.907Z,11.17
2022-07-25T05:57:12.256Z,21.80
2022-07-25T05:59:41.971Z,11.10
2022-07-25T06:02:11.279Z,11.73
2022-07-25T06:04:41.907Z,10.57
2022-07-25T06:07:12.001Z,10.00
2022-07-25T06:09:46.043Z,11.20
2022-07-25T06:12:15.287Z,11.37
2022-07-25T06:14:44.813Z,10.43
2022-07-25T06:17:13.882Z,10.73
2022-07-25T06:19:44.406Z,11.87
2022-07-25T06:22:13.817Z,11.13
2022-07-25T06:24:43.830Z,12.37
2022-07-25T06:27:17.188Z,11.73
2022-07-25T06:29:49.265Z,12.00
2022-07-25T06:32:18.559Z,12.77
2022-07-25T06:34:49.141Z,12.63
2022-07-25T06:37:18.361Z,12.57
2022-07-25T06:39:47.529Z,12.10
2022-07-25T06:42:16.654Z,12.53
2022-07-25T06:44:46.046Z,11.97
2022-07-25T06:47:15.385Z,12.27
2022-07-25T06:49:44.551Z,12.00
2022-07-25T06:52:15.906Z,12.10
2022-07-25T06:54:44.965Z,12.37
2022-07-25T06:57:14.133Z,11.50
2022-07-25T06:59:44.917Z,10.67
2022-07-25T07:02:14.208Z,12.00
2022-07-25T07:04:43.617Z,10.30
2022-07-25T07:07:14.205Z,11.17
2022-07-25T07:09:43.613Z,12.20
2022-07-25T07:12:12.884Z,11.53
2022-07-25T07:14:43.815Z,11.63
2022-07-25T07:17:13.005Z,11.63
2022-07-25T07:19:44.633Z,11.87
2022-07-25T07:22:15.180Z,11.70
2022-07-25T07:24:48.087Z,10.80
2022-07-25T07:27:19.150Z,11.77
2022-07-25T07:29:48.548Z,10.07
2022-07-25T07:32:20.064Z,12.20
2022-07-25T07:34:49.237Z,11.63
2022-07-25T07:37:19.795Z,11.00
2022-07-25T07:39:50.235Z,11.40
2022-07-25T07:43:33.432Z,11.10
2022-07-25T07:46:03.062Z,11.60
2022-07-25T07:48:33.656Z,10.87
2022-07-25T07:51:03.749Z,11.67
2022-07-25T07:53:51.564Z,11.90
2022-07-25T07:56:20.708Z,11.23
2022-07-25T07:58:50.512Z,11.00
2022-07-25T08:01:19.923Z,11.70
2022-07-25T08:03:49.032Z,11.70
2022-07-25T08:06:18.400Z,11.50
2022-07-25T08:08:48.967Z,11.87
2022-07-25T08:11:18.154Z,12.40
2022-07-25T08:13:48.614Z,11.23
2022-07-25T08:16:17.907Z,11.57
2022-07-25T08:18:47.046Z,11.90
2022-07-25T08:21:16.241Z,11.03
2022-07-25T08:23:47.116Z,11.40
2022-07-25T08:26:17.860Z,12.27
2022-07-25T08:28:48.399Z,11.73
2022-07-25T08:31:21.859Z,12.20
2022-07-25T08:33:51.205Z,11.50
2022-07-25T08:36:20.362Z,12.33
2022-07-25T08:38:49.535Z,11.40
2022-07-25T08:41:20.458Z,10.93
2022-07-25T08:43:54.291Z,11.83
2022-07-25T08:46:23.920Z,10.87
2022-07-25T08:48:53.481Z,11.47
2022-07-25T08:51:23.672Z,11.83
2022-07-25T08:53:53.260Z,11.37
2022-07-25T08:56:24.393Z,12.30
2022-07-25T08:58:53.959Z,12.57
2022-07-25T09:01:23.079Z,11.03
2022-07-25T09:03:52.321Z,11.60
2022-07-25T09:06:23.282Z,9.77
2022-07-25T09:08:57.121Z,10.20
2022-07-25T09:11:33.609Z,9.50
2022-07-25T09:14:08.858Z,10.30
2022-07-25T09:16:41.025Z,9.53
2022-07-25T09:19:13.359Z,8.87
2022-07-25T09:21:45.992Z,9.80
2022-07-25T09:24:17.748Z,10.00
2022-07-25T09:26:51.684Z,9.37
2022-07-25T09:29:24.174Z,9.83
2022-07-25T09:31:54.615Z,10.37
2022-07-25T09:34:38.933Z,11.40
2022-07-25T09:37:12.350Z,12.20
2022-07-25T09:39:46.921Z,10.10
2022-07-25T09:42:33.407Z,10.20
2022-07-25T09:45:06.777Z,10.70
2022-07-25T09:47:40.285Z,11.70
2022-07-25T09:50:10.425Z,10.43
2022-07-25T09:52:40.608Z,11.00
2022-07-25T09:55:11.005Z,12.20
2022-07-25T09:57:42.032Z,10.90
2022-07-25T10:00:19.027Z,10.60
2022-07-25T10:02:54.001Z,10.00
2022-07-25T10:05:45.807Z,10.63
2022-07-25T10:08:15.967Z,9.70
2022-07-25T10:10:45.119Z,10.30
2022-07-25T10:13:18.163Z,10.20
2022-07-25T10:15:49.916Z,10.30
2022-07-25T10:18:21.819Z,10.33
2022-07-25T10:20:54.795Z,10.53
2022-07-25T10:23:27.633Z,10.13
2022-07-25T10:26:10.652Z,9.17
2022-07-25T10:28:45.097Z,10.40
2022-07-25T10:31:24.480Z,10.13
2022-07-25T10:33:57.237Z,9.53
2022-07-25T10:36:43.564Z,10.00
2022-07-25T10:39:16.069Z,10.20
2022-07-25T10:41:55.817Z,9.47
2022-07-25T10:44:33.764Z,9.20
2022-07-25T10:47:07.062Z,9.43
2022-07-25T10:49:50.078Z,10.00
2022-07-25T10:52:30.559Z,9.17
2022-07-25T10:55:01.962Z,8.10
2022-07-25T10:57:32.374Z,8.43
2022-07-25T11:00:09.955Z,7.90
2022-07-25T11:02:39.652Z,9.17
2022-07-25T11:05:10.188Z,8.70
2022-07-25T11:07:39.276Z,12.10
2022-07-25T11:10:10.452Z,8.57
2022-07-25T11:12:39.882Z,9.03
2022-07-25T11:15:17.109Z,8.93
2022-07-25T11:17:53.583Z,7.30
2022-07-25T11:20:23.199Z,7.67
2022-07-25T11:22:54.589Z,7.20
2022-07-25T11:25:24.713Z,7.93
2022-07-25T11:27:58.990Z,7.33
2022-07-25T11:30:30.864Z,6.93
2022-07-25T11:33:02.385Z,9.43
2022-07-25T11:35:34.130Z,8.10
2022-07-25T11:38:04.828Z,7.57
2022-07-25T11:40:43.741Z,7.80
2022-07-25T11:43:21.675Z,7.50
2022-07-25T11:46:01.844Z,7.60
2022-07-25T11:48:34.349Z,6.57
2022-07-25T11:51:18.395Z,6.97
2022-07-25T11:53:50.651Z,7.70
2022-07-25T11:59:11.976Z,7.30
2022-07-25T12:01:45.012Z,8.00
2022-07-25T12:04:16.486Z,8.60
2022-07-25T12:06:47.478Z,7.10
2022-07-25T12:09:19.861Z,7.50
2022-07-25T12:11:50.289Z,8.27
2022-07-25T12:14:19.469Z,7.50
2022-07-25T12:16:50.004Z,8.27
2022-07-25T12:19:23.538Z,6.77
2022-07-25T12:21:52.692Z,7.20
2022-07-25T12:24:21.764Z,7.27
2022-07-25T12:26:50.929Z,7.50
2022-07-25T12:29:20.034Z,8.37
2022-07-25T12:31:50.575Z,7.50
2022-07-25T12:34:19.759Z,7.67
2022-07-25T12:36:49.085Z,7.73
2022-07-25T12:39:18.246Z,7.47
2022-07-25T12:41:47.374Z,7.20
2022-07-25T12:44:16.439Z,7.50
2022-07-25T12:46:49.497Z,7.30
2022-07-25T12:49:20.184Z,8.10
2022-07-25T12:51:50.789Z,7.80
2022-07-25T12:54:22.663Z,7.17
2022-07-25T12:56:52.047Z,7.60
2022-07-25T12:59:21.265Z,7.70
2022-07-25T13:01:50.563Z,8.53
2022-07-25T13:04:21.264Z,7.90
2022-07-25T13:06:50.440Z,8.17
2022-07-25T13:09:19.700Z,8.10
2022-07-25T13:11:49.042Z,7.57
2022-07-25T13:14:18.635Z,9.00
2022-07-25T13:16:49.082Z,7.43
2022-07-25T13:19:20.073Z,9.03
2022-07-25T13:21:49.206Z,9.50
2022-07-25T13:24:18.714Z,9.20
2022-07-25T13:26:47.907Z,8.67
2022-07-25T13:29:17.017Z,8.63
2022-07-25T13:31:51.416Z,9.03
2022-07-25T13:34:23.628Z,9.10
2022-07-25T13:36:52.857Z,7.80
2022-07-25T13:39:22.607Z,8.07
2022-07-25T13:41:51.744Z,8.20
2022-07-25T13:44:23.274Z,6.97
2022-07-25T13:46:54.738Z,7.57
2022-07-25T13:52:09.690Z,6.70
2022-07-25T13:54:44.015Z,7.17
2022-07-25T13:57:13.342Z,6.70
2022-07-25T13:59:42.735Z,7.50
2022-07-25T14:02:11.923Z,7.90
2022-07-25T14:04:42.977Z,8.17
2022-07-25T14:07:12.116Z,7.30
2022-07-25T14:09:41.327Z,8.20
2022-07-25T14:12:10.855Z,8.13
2022-07-25T14:14:43.274Z,8.40
2022-07-25T14:17:12.625Z,7.70
2022-07-25T14:19:43.197Z,8.93
2022-07-25T14:22:12.410Z,8.67
2022-07-25T14:24:41.796Z,7.43
2022-07-25T14:27:11.837Z,8.87
2022-07-25T14:29:41.085Z,8.73
2022-07-25T14:32:10.450Z,10.00
2022-07-25T14:34:40.393Z,10.00
2022-07-25T14:37:10.984Z,8.83
2022-07-25T14:39:40.298Z,8.80
2022-07-25T14:42:11.596Z,8.87
2022-07-25T14:44:42.271Z,10.00
2022-07-25T14:47:12.787Z,9.30
2022-07-25T14:49:43.558Z,8.87
2022-07-25T14:52:16.418Z,8.70
2022-07-25T14:54:46.142Z,9.60
2022-07-25T14:57:15.579Z,8.83
2022-07-25T14:59:44.724Z,8.90
2022-07-25T15:02:14.156Z,9.57
2022-07-25T15:04:43.657Z,8.10
2022-07-25T15:07:14.415Z,9.27
2022-07-25T15:09:43.638Z,8.37
2022-07-25T15:12:16.675Z,8.80
2022-07-25T15:14:48.966Z,8.90
2022-07-25T15:17:18.241Z,9.00
2022-07-25T15:19:47.443Z,9.97
2022-07-25T15:22:18.062Z,8.47
2022-07-25T15:25:17.204Z,9.57
2022-07-25T15:27:36.578Z,8.77
2022-07-25T15:30:11.916Z,8.90
2022-07-25T15:32:41.229Z,9.20
2022-07-25T15:35:10.802Z,8.10
2022-07-25T15:37:44.564Z,8.60
2022-07-25T15:40:14.745Z,8.60
2022-07-25T15:42:44.194Z,8.60
2022-07-25T15:45:32.665Z,8.87
2022-07-25T15:48:03.656Z,8.47
2022-07-25T15:50:32.854Z,8.20
2022-07-25T15:53:03.531Z,8.27
2022-07-25T15:55:33.030Z,9.00
2022-07-25T15:58:04.790Z,7.93
2022-07-25T16:00:36.609Z,8.77
2022-07-25T16:03:07.092Z,8.30
2022-07-25T16:05:37.550Z,9.13
2022-07-25T16:08:09.910Z,9.27
2022-07-25T16:10:42.168Z,8.50
2022-07-25T16:13:11.345Z,9.63
2022-07-25T16:15:40.687Z,8.10
2022-07-25T16:18:12.498Z,8.47
2022-07-25T16:20:41.893Z,9.27
2022-07-25T16:23:12.470Z,8.30
2022-07-25T16:25:41.657Z,8.40
2022-07-25T16:28:10.831Z,8.63
2022-07-25T16:30:43.066Z,8.30
2022-07-25T16:33:12.299Z,8.23
2022-07-25T16:35:41.736Z,7.97
2022-07-25T16:38:12.404Z,8.20
2022-07-25T16:40:44.147Z,8.13
2022-07-25T16:43:13.258Z,7.77
2022-07-25T16:45:43.027Z,7.17
2022-07-25T16:48:12.346Z,7.57
2022-07-25T16:50:41.523Z,7.67
2022-07-25T16:53:12.006Z,7.57
2022-07-25T16:55:41.164Z,8.10
2022-07-25T16:58:27.226Z,7.40
2022-07-25T17:00:56.540Z,7.50
2022-07-25T17:03:25.704Z,8.03
2022-07-25T17:05:59.776Z,7.13
2022-07-25T17:08:32.521Z,7.77
2022-07-25T17:11:02.489Z,8.07
2022-07-25T17:13:32.466Z,7.23
2022-07-25T17:16:01.840Z,6.70
2022-07-25T17:18:31.368Z,6.83
2022-07-25T17:21:00.486Z,7.20
2022-07-25T17:23:31.081Z,7.03
2022-07-25T17:26:00.251Z,7.03
2022-07-25T17:28:29.927Z,7.40
2022-07-25T17:30:59.280Z,7.30
2022-07-25T17:33:37.219Z,7.87
2022-07-25T17:36:07.421Z,8.20
2022-07-25T17:38:40.134Z,7.60
2022-07-25T17:41:09.355Z,6.93
2022-07-25T17:43:38.800Z,7.87
2022-07-25T17:46:10.348Z,7.47
2022-07-25T17:48:39.854Z,7.20
2022-07-25T17:51:09.425Z,6.83
2022-07-25T17:53:42.402Z,6.50
2022-07-25T17:56:11.487Z,6.33
2022-07-25T17:58:40.861Z,7.20
2022-07-25T18:01:10.780Z,7.93
2022-07-25T18:03:40.134Z,6.80
2022-07-25T18:06:09.543Z,7.40
2022-07-25T18:08:40.145Z,6.67
2022-07-25T18:11:09.386Z,7.17
2022-07-25T18:13:38.648Z,6.20
2022-07-25T18:16:18.737Z,8.07
2022-07-25T18:20:05.583Z,6.67
2022-07-25T18:22:45.088Z,7.30
2022-07-25T18:25:20.314Z,7.20
2022-07-25T18:27:50.063Z,6.73
2022-07-25T18:30:19.180Z,8.30
2022-07-25T18:32:48.355Z,7.23
2022-07-25T18:35:55.687Z,6.20
2022-07-25T18:38:28.081Z,6.80
2022-07-25T18:41:26.366Z,6.30
2022-07-25T18:43:50.898Z,5.90
2022-07-25T18:46:21.299Z,5.50
2022-07-25T18:48:50.451Z,5.30
2022-07-25T18:51:19.818Z,5.20
2022-07-25T18:53:49.638Z,5.47
2022-07-25T18:56:20.216Z,5.70
2022-07-25T18:58:49.791Z,5.60
2022-07-25T19:01:19.406Z,5.13
2022-07-25T19:03:48.602Z,5.17
2022-07-25T19:06:18.019Z,4.10
2022-07-25T19:08:47.892Z,5.20
2022-07-25T19:11:17.175Z,5.13
2022-07-25T19:13:49.963Z,5.13
2022-07-25T19:16:21.003Z,5.10
2022-07-25T19:18:50.471Z,4.67
2022-07-25T19:21:19.580Z,5.27
2022-07-25T19:23:51.500Z,5.60
2022-07-25T19:26:21.102Z,4.77
2022-07-25T19:28:52.177Z,4.70
2022-07-25T19:31:21.778Z,5.17
2022-07-25T19:33:54.406Z,5.30
2022-07-25T19:36:23.599Z,5.67
2022-07-25T19:38:55.565Z,4.73
2022-07-25T19:41:24.876Z,5.00
2022-07-25T19:43:56.102Z,5.17
2022-07-25T19:46:29.660Z,5.10
2022-07-25T19:48:58.952Z,5.30
2022-07-25T19:51:28.786Z,6.67
2022-07-25T19:53:57.870Z,4.53
2022-07-25T19:56:26.908Z,5.77
2022-07-25T19:58:57.770Z,4.70
2022-07-25T20:01:26.960Z,8.13
2022-07-25T20:03:56.876Z,4.83
2022-07-25T20:06:26.842Z,5.00
2022-07-25T20:08:55.999Z,4.40
2022-07-25T20:11:25.164Z,4.73
2022-07-25T20:13:54.279Z,4.73
2022-07-25T20:16:24.790Z,3.60
2022-07-25T20:18:53.968Z,4.20
2022-07-25T20:21:23.413Z,3.77
2022-07-25T20:23:52.492Z,3.80
2022-07-25T20:26:21.667Z,3.40
2022-07-25T20:28:50.767Z,4.00
2022-07-25T20:31:22.400Z,3.97
2022-07-25T20:33:53.672Z,4.47
2022-07-25T20:36:22.888Z,6.63
2022-07-25T20:38:51.996Z,3.40
2022-07-25T20:41:21.140Z,4.70
2022-07-25T20:43:50.203Z,3.80
2022-07-25T20:46:19.263Z,6.93
2022-07-25T20:48:48.380Z,5.97
2022-07-25T20:51:18.810Z,3.90
2022-07-25T20:53:53.236Z,3.50
2022-07-25T20:56:23.120Z,3.37
2022-07-25T20:58:52.148Z,4.00
2022-07-25T21:01:21.288Z,3.43
2022-07-25T21:03:50.657Z,3.67
2022-07-25T21:06:21.452Z,3.83
2022-07-25T21:08:56.727Z,3.30
2022-07-25T21:11:26.115Z,4.23
2022-07-25T21:13:55.818Z,3.57
2022-07-25T21:16:27.204Z,3.63
2022-07-25T21:18:57.310Z,3.30
2022-07-25T21:21:28.190Z,3.60
2022-07-25T21:23:57.269Z,3.60
2022-07-25T21:26:26.343Z,3.50
2022-07-25T21:28:55.582Z,4.30
2022-07-25T21:31:24.780Z,3.60
2022-07-25T21:33:53.861Z,3.70
2022-07-25T21:36:23.320Z,3.60
2022-07-25T21:38:53.824Z,3.50
2022-07-25T21:41:23.120Z,3.40
2022-07-25T21:43:52.966Z,3.53
2022-07-25T21:46:22.308Z,3.50
2022-07-25T21:49:13.793Z,3.10
2022-07-25T21:51:43.676Z,3.63
2022-07-25T21:54:14.619Z,3.50
2022-07-25T21:56:43.776Z,3.10
2022-07-25T21:59:12.830Z,3.23
2022-07-25T22:01:41.986Z,3.30
2022-07-25T22:04:11.703Z,3.30
2022-07-25T22:06:40.840Z,4.30
2022-07-25T22:09:10.369Z,3.40
2022-07-25T22:11:46.103Z,3.53
2022-07-25T22:14:16.502Z,3.83
2022-07-25T22:16:45.759Z,3.87
2022-07-25T22:19:15.068Z,3.17
2022-07-25T22:21:44.388Z,3.43
2022-07-25T22:24:13.499Z,3.87
2022-07-25T22:26:44.282Z,3.60
2022-07-25T22:29:13.484Z,3.63
2022-07-25T22:31:44.376Z,4.23
2022-07-25T22:34:13.603Z,3.50
2022-07-25T22:36:42.720Z,3.03
2022-07-25T22:39:13.041Z,3.70
2022-07-25T22:41:43.700Z,3.60
2022-07-25T22:44:12.867Z,4.10
2022-07-25T22:46:41.926Z,4.47
2022-07-25T22:49:11.918Z,3.43
2022-07-25T22:51:41.654Z,3.00
2022-07-25T22:54:11.028Z,2.90
2022-07-25T22:56:40.169Z,3.23
2022-07-25T22:59:11.281Z,4.10
2022-07-25T23:01:40.601Z,3.13
2022-07-25T23:04:11.151Z,3.10
2022-07-25T23:06:40.246Z,2.90
2022-07-25T23:09:09.907Z,3.67
2022-07-25T23:11:39.355Z,3.30
2022-07-25T23:14:09.938Z,3.30
2022-07-25T23:16:39.225Z,3.53
2022-07-25T23:19:09.327Z,3.47
2022-07-25T23:21:39.090Z,3.23
2022-07-25T23:24:08.530Z,4.07
2022-07-25T23:26:37.573Z,2.80
2022-07-25T23:29:06.880Z,2.90
2022-07-25T23:31:37.653Z,3.10
2022-07-25T23:34:07.184Z,3.97
2022-07-25T23:36:36.453Z,3.90
2022-07-25T23:39:05.995Z,2.87
2022-07-25T23:41:35.355Z,3.10
2022-07-25T23:44:05.604Z,3.70
2022-07-25T23:46:37.971Z,3.50
2022-07-25T23:49:09.925Z,3.30
2022-07-25T23:51:39.707Z,2.90
2022-07-25T23:54:09.070Z,3.40
2022-07-25T23:56:38.242Z,2.73
2022-07-25T23:59:07.550Z,2.97
